createdAt,value
2023-02-25T00:01:24.080Z,63.33
2023-02-25T00:03:54.095Z,64.12
2023-02-25T00:06:23.660Z,64.36
2023-02-25T00:08:54.452Z,64.04
2023-02-25T00:11:24.078Z,64.04
2023-02-25T00:13:53.120Z,63.64
2023-02-25T00:16:22.886Z,63.58
2023-02-25T00:18:55.111Z,63.81
2023-02-25T00:21:24.013Z,62.55
2023-02-25T00:23:54.436Z,63.28
2023-02-25T00:26:23.924Z,63.14
2023-02-25T00:28:53.204Z,63.67
2023-02-25T00:31:23.941Z,63.36
2023-02-25T00:33:54.095Z,63.26
2023-02-25T00:36:24.397Z,62.89
2023-02-25T00:38:56.433Z,62.42
2023-02-25T00:41:26.871Z,62.46
2023-02-25T00:43:56.564Z,62.32
2023-02-25T00:46:26.158Z,62.66
2023-02-25T00:48:54.543Z,63.37
2023-02-25T00:51:24.864Z,62.00
2023-02-25T00:53:56.313Z,62.73
2023-02-25T00:56:26.148Z,62.13
2023-02-25T00:58:54.430Z,61.90
2023-02-25T01:01:25.646Z,62.24
2023-02-25T01:03:56.612Z,62.65
2023-02-25T01:06:25.763Z,61.98
2023-02-25T01:08:56.275Z,61.93
2023-02-25T01:11:27.609Z,61.81
2023-02-25T01:13:56.997Z,62.42
2023-02-25T01:16:27.374Z,62.30
2023-02-25T01:18:57.861Z,62.71
2023-02-25T01:21:29.003Z,62.46
2023-02-25T01:24:01.101Z,62.31
2023-02-25T01:26:31.379Z,62.53
2023-02-25T01:29:00.293Z,63.70
2023-02-25T01:31:29.620Z,63.27
2023-02-25T01:33:59.013Z,62.97
2023-02-25T01:36:27.408Z,63.86
2023-02-25T01:38:56.368Z,63.67
2023-02-25T01:41:28.490Z,63.94
2023-02-25T01:44:10.927Z,64.11
2023-02-25T01:46:40.077Z,64.25
2023-02-25T01:49:14.424Z,63.63
2023-02-25T01:51:45.532Z,64.21
2023-02-25T01:54:15.402Z,64.55
2023-02-25T01:56:49.782Z,63.91
2023-02-25T01:59:20.730Z,64.01
2023-02-25T02:01:49.155Z,63.69
2023-02-25T02:04:19.975Z,64.23
2023-02-25T02:06:50.065Z,64.55
2023-02-25T02:09:22.041Z,64.73
2023-02-25T02:11:51.417Z,64.05
2023-02-25T02:14:24.441Z,64.58
2023-02-25T02:17:06.035Z,64.33
2023-02-25T02:19:49.670Z,64.14
2023-02-25T02:22:24.900Z,64.84
2023-02-25T02:25:17.650Z,64.99
2023-02-25T02:28:10.970Z,65.30
2023-02-25T02:30:57.018Z,66.63
2023-02-25T02:33:37.729Z,67.23
2023-02-25T02:36:14.416Z,67.85
2023-02-25T02:38:50.741Z,66.82
2023-02-25T02:41:26.344Z,67.13
2023-02-25T02:44:03.804Z,67.69
2023-02-25T02:46:38.374Z,68.31
2023-02-25T02:49:13.151Z,68.69
2023-02-25T02:51:47.706Z,69.15
2023-02-25T02:54:17.317Z,69.43
2023-02-25T02:56:49.500Z,69.90
2023-02-25T02:59:24.976Z,69.89
2023-02-25T03:01:58.163Z,70.19
2023-02-25T03:04:34.930Z,70.24
2023-02-25T03:07:06.731Z,70.58
2023-02-25T03:09:39.207Z,70.61
2023-02-25T03:12:08.927Z,71.14
2023-02-25T03:14:38.337Z,70.82
2023-02-25T03:17:10.815Z,69.93
2023-02-25T03:19:43.727Z,69.83
2023-02-25T03:22:14.852Z,70.40
2023-02-25T03:24:49.799Z,69.88
2023-02-25T03:27:25.774Z,69.99
2023-02-25T03:30:01.934Z,70.47
2023-02-25T03:32:32.393Z,70.35
2023-02-25T03:35:05.223Z,69.07
2023-02-25T03:37:35.754Z,68.83
2023-02-25T03:40:11.474Z,68.98
2023-02-25T03:42:45.363Z,68.94
2023-02-25T03:45:16.579Z,69.80
2023-02-25T03:47:45.052Z,70.36
2023-02-25T03:50:20.200Z,71.71
2023-02-25T03:52:48.771Z,71.26
2023-02-25T03:55:19.744Z,70.46
2023-02-25T03:57:51.701Z,70.64
2023-02-25T04:00:27.644Z,70.23
2023-02-25T04:02:56.660Z,70.24
2023-02-25T04:05:27.864Z,71.09
2023-02-25T04:07:57.038Z,71.20
2023-02-25T04:10:26.734Z,71.07
2023-02-25T04:12:54.919Z,70.39
2023-02-25T04:15:23.818Z,70.06
2023-02-25T04:17:53.407Z,70.47
2023-02-25T04:20:21.534Z,70.25
2023-02-25T04:22:51.070Z,69.87
2023-02-25T04:25:19.257Z,68.75
2023-02-25T04:27:47.325Z,69.09
2023-02-25T04:30:16.468Z,68.63
2023-02-25T04:32:45.035Z,67.75
2023-02-25T04:35:13.670Z,68.03
2023-02-25T04:37:43.688Z,68.10
2023-02-25T04:40:15.969Z,67.32
2023-02-25T04:42:44.740Z,67.59
2023-02-25T04:45:13.797Z,66.94
2023-02-25T04:47:42.643Z,66.82
2023-02-25T04:50:12.424Z,66.28
2023-02-25T04:52:40.699Z,66.56
2023-02-25T04:55:10.011Z,66.55
2023-02-25T04:57:42.676Z,66.41
2023-02-25T05:00:19.634Z,66.04
2023-02-25T05:02:48.912Z,66.31
2023-02-25T05:05:17.965Z,66.07
2023-02-25T05:07:46.245Z,66.25
2023-02-25T05:10:15.587Z,65.40
2023-02-25T05:12:45.477Z,65.55
2023-02-25T05:15:13.898Z,65.66
2023-02-25T05:17:42.229Z,65.38
2023-02-25T05:20:13.096Z,66.13
2023-02-25T05:22:42.259Z,66.14
2023-02-25T05:25:12.221Z,65.98
2023-02-25T05:30:12.752Z,65.08
2023-02-25T05:32:41.193Z,64.83
2023-02-25T05:35:12.093Z,65.26
2023-02-25T05:37:40.598Z,64.63
2023-02-25T05:40:10.388Z,64.63
2023-02-25T05:42:38.779Z,64.53
2023-02-25T05:45:08.905Z,64.60
2023-02-25T05:47:38.419Z,64.79
2023-02-25T05:50:07.520Z,64.94
2023-02-25T05:52:35.539Z,64.42
2023-02-25T05:55:04.394Z,64.24
2023-02-25T05:57:32.689Z,63.75
2023-02-25T06:00:01.604Z,64.47
2023-02-25T06:02:29.834Z,63.83
2023-02-25T06:04:59.406Z,63.70
2023-02-25T06:07:30.383Z,63.84
2023-02-25T06:10:00.753Z,64.24
2023-02-25T06:12:30.219Z,64.68
2023-02-25T06:14:59.008Z,64.39
2023-02-25T06:17:27.227Z,64.11
2023-02-25T06:19:56.311Z,64.49
2023-02-25T06:22:26.027Z,64.97
2023-02-25T06:24:54.034Z,64.96
2023-02-25T06:27:22.493Z,64.27
2023-02-25T06:29:50.878Z,64.08
2023-02-25T06:32:19.554Z,64.02
2023-02-25T06:34:47.687Z,64.78
2023-02-25T06:37:16.572Z,64.53
2023-02-25T06:39:45.790Z,64.33
2023-02-25T06:42:13.810Z,63.41
2023-02-25T06:44:42.065Z,64.04
2023-02-25T06:47:10.157Z,63.69
2023-02-25T06:49:38.283Z,63.30
2023-02-25T06:52:06.549Z,63.75
2023-02-25T06:54:34.688Z,63.02
2023-02-25T06:57:08.512Z,63.60
2023-02-25T06:59:48.347Z,63.64
2023-02-25T07:02:19.197Z,63.77
2023-02-25T07:04:47.611Z,63.82
2023-02-25T07:07:15.664Z,64.40
2023-02-25T07:09:43.693Z,65.23
2023-02-25T07:12:13.426Z,64.51
2023-02-25T07:14:41.507Z,64.26
2023-02-25T07:17:09.475Z,64.59
2023-02-25T07:19:37.790Z,63.75
2023-02-25T07:22:06.261Z,64.42
2023-02-25T07:24:34.259Z,64.50
2023-02-25T07:27:02.922Z,64.45
2023-02-25T07:29:32.230Z,63.72
2023-02-25T07:32:01.212Z,63.02
2023-02-25T07:34:29.607Z,63.08
2023-02-25T07:36:57.729Z,62.87
2023-02-25T07:39:25.769Z,62.71
2023-02-25T07:41:54.111Z,61.82
2023-02-25T07:44:22.148Z,61.91
2023-02-25T07:46:51.483Z,61.84
2023-02-25T07:49:19.758Z,62.31
2023-02-25T07:51:47.837Z,62.71
2023-02-25T07:54:17.216Z,62.42
2023-02-25T07:56:45.679Z,63.68
2023-02-25T07:59:14.264Z,64.08
2023-02-25T08:01:42.339Z,64.07
2023-02-25T08:04:12.110Z,65.02
2023-02-25T08:06:41.485Z,64.44
2023-02-25T08:09:12.295Z,64.16
2023-02-25T08:11:41.753Z,64.54
2023-02-25T08:14:09.899Z,65.46
2023-02-25T08:16:38.521Z,65.89
2023-02-25T08:19:07.515Z,65.88
2023-02-25T08:21:37.467Z,66.29
2023-02-25T08:24:06.235Z,65.44
2023-02-25T08:26:35.198Z,66.39
2023-02-25T08:29:03.685Z,66.02
2023-02-25T08:31:31.796Z,65.72
2023-02-25T08:34:00.355Z,65.90
2023-02-25T08:36:31.486Z,65.63
2023-02-25T08:39:01.621Z,65.05
2023-02-25T08:41:30.712Z,65.04
2023-02-25T08:44:01.248Z,65.25
2023-02-25T08:46:32.853Z,64.96
2023-02-25T08:49:02.300Z,64.57
2023-02-25T08:51:35.311Z,64.67
2023-02-25T08:54:07.815Z,64.20
2023-02-25T08:56:37.496Z,64.08
2023-02-25T08:59:06.633Z,64.77
2023-02-25T09:01:45.516Z,64.34
2023-02-25T09:04:15.053Z,63.73
2023-02-25T09:06:43.480Z,63.46
2023-02-25T09:09:13.364Z,63.27
2023-02-25T09:11:41.929Z,63.16
2023-02-25T09:14:10.943Z,63.15
2023-02-25T09:16:39.427Z,62.70
2023-02-25T09:19:08.601Z,62.73
2023-02-25T09:21:40.568Z,62.37
2023-02-25T09:24:09.881Z,62.46
2023-02-25T09:26:42.570Z,62.40
2023-02-25T09:29:11.100Z,62.29
2023-02-25T09:31:42.293Z,62.04
2023-02-25T09:34:13.935Z,61.59
2023-02-25T09:36:42.790Z,61.97
2023-02-25T09:39:12.655Z,61.78
2023-02-25T09:41:49.547Z,62.39
2023-02-25T09:44:21.594Z,62.02
2023-02-25T09:46:57.458Z,62.14
2023-02-25T09:49:36.408Z,62.83
2023-02-25T09:52:13.405Z,63.26
2023-02-25T09:54:45.759Z,63.67
2023-02-25T09:57:22.664Z,62.94
2023-02-25T09:59:53.787Z,63.15
2023-02-25T10:02:31.029Z,63.64
2023-02-25T10:05:15.858Z,63.04
2023-02-25T10:07:54.370Z,63.30
2023-02-25T10:10:28.448Z,63.02
2023-02-25T10:13:06.084Z,63.26
2023-02-25T10:15:52.812Z,63.17
2023-02-25T10:18:54.985Z,63.19
2023-02-25T10:21:46.723Z,63.63
2023-02-25T10:24:23.589Z,63.55
2023-02-25T10:26:56.180Z,63.47
2023-02-25T10:29:30.068Z,62.90
2023-02-25T10:32:13.268Z,63.47
2023-02-25T10:34:42.008Z,63.55
2023-02-25T10:37:18.500Z,62.90
2023-02-25T10:39:51.367Z,62.49
2023-02-25T10:42:22.729Z,62.22
2023-02-25T10:44:52.685Z,62.38
2023-02-25T10:47:31.093Z,62.84
2023-02-25T10:50:16.166Z,63.09
2023-02-25T10:52:56.757Z,62.69
2023-02-25T10:55:51.440Z,63.21
2023-02-25T10:58:34.530Z,63.08
2023-02-25T11:01:09.026Z,63.12
2023-02-25T11:03:46.465Z,63.21
2023-02-25T11:06:23.336Z,63.10
2023-02-25T11:08:53.091Z,62.90
2023-02-25T11:11:24.004Z,62.30
2023-02-25T11:13:59.946Z,61.69
2023-02-25T11:16:30.875Z,60.87
2023-02-25T11:19:02.775Z,59.94
2023-02-25T11:21:37.354Z,60.44
2023-02-25T11:24:11.708Z,60.16
2023-02-25T11:26:44.050Z,59.88
2023-02-25T11:29:17.951Z,59.88
2023-02-25T11:31:52.121Z,59.53
2023-02-25T11:34:23.785Z,59.29
2023-02-25T11:36:52.625Z,59.07
2023-02-25T11:39:23.520Z,58.38
2023-02-25T11:41:53.749Z,58.57
2023-02-25T11:44:26.880Z,58.74
2023-02-25T11:47:07.442Z,58.64
2023-02-25T11:50:08.032Z,58.47
2023-02-25T11:52:41.736Z,57.55
2023-02-25T11:55:25.068Z,58.28
2023-02-25T11:58:06.110Z,58.51
2023-02-25T12:00:45.021Z,58.51
2023-02-25T12:03:40.220Z,58.32
2023-02-25T12:06:24.025Z,58.37
2023-02-25T12:09:18.866Z,58.06
2023-02-25T12:12:08.817Z,58.29
2023-02-25T12:15:06.791Z,58.35
2023-02-25T12:18:11.714Z,58.81
2023-02-25T12:21:15.922Z,59.19
2023-02-25T12:24:15.518Z,59.28
2023-02-25T12:27:17.704Z,58.80
2023-02-25T12:30:08.573Z,59.55
2023-02-25T12:32:54.113Z,58.73
2023-02-25T12:35:41.532Z,58.66
2023-02-25T12:38:34.662Z,58.62
2023-02-25T12:41:30.591Z,58.42
2023-02-25T12:44:15.773Z,57.99
2023-02-25T12:47:02.004Z,57.38
2023-02-25T12:49:55.960Z,57.34
2023-02-25T12:52:38.554Z,57.09
2023-02-25T12:55:43.082Z,57.33
2023-02-25T12:58:27.816Z,56.24
2023-02-25T13:01:13.821Z,55.12
2023-02-25T13:04:29.474Z,53.07
2023-02-25T13:07:14.509Z,52.52
2023-02-25T13:10:00.288Z,53.68
2023-02-25T13:12:46.981Z,55.28
2023-02-25T13:15:21.513Z,57.51
2023-02-25T13:18:12.435Z,58.04
2023-02-25T13:20:57.183Z,58.38
2023-02-25T13:23:58.075Z,58.45
2023-02-25T13:26:46.480Z,58.28
2023-02-25T13:29:33.669Z,58.91
2023-02-25T13:32:18.819Z,58.77
2023-02-25T13:35:06.652Z,58.75
2023-02-25T13:37:47.221Z,58.78
2023-02-25T13:40:33.018Z,58.37
2023-02-25T13:43:21.773Z,57.96
2023-02-25T13:46:32.735Z,57.90
2023-02-25T13:49:17.402Z,58.07
2023-02-25T13:52:14.679Z,58.17
2023-02-25T13:55:17.696Z,57.29
2023-02-25T13:58:02.318Z,56.99
2023-02-25T14:01:01.158Z,57.26
2023-02-25T14:04:03.687Z,56.35
2023-02-25T14:06:47.407Z,58.25
2023-02-25T14:09:29.720Z,58.68
2023-02-25T14:12:12.411Z,58.64
2023-02-25T14:15:10.602Z,58.72
2023-02-25T14:17:56.334Z,58.88
2023-02-25T14:20:40.016Z,58.13
2023-02-25T14:23:17.156Z,58.49
2023-02-25T14:26:15.231Z,58.16
2023-02-25T14:28:52.869Z,57.38
2023-02-25T14:31:28.716Z,57.59
2023-02-25T14:34:13.027Z,57.98
2023-02-25T14:37:06.288Z,57.40
2023-02-25T14:39:49.320Z,57.58
2023-02-25T14:42:33.961Z,57.07
2023-02-25T14:45:16.031Z,57.00
2023-02-25T14:47:53.457Z,56.62
2023-02-25T14:50:26.736Z,56.65
2023-02-25T14:53:27.598Z,56.99
2023-02-25T14:56:27.320Z,56.84
2023-02-25T14:59:25.980Z,56.71
2023-02-25T15:02:23.264Z,56.73
2023-02-25T15:05:19.474Z,57.29
2023-02-25T15:08:04.561Z,58.52
2023-02-25T15:10:48.300Z,58.36
2023-02-25T15:13:30.587Z,58.33
2023-02-25T15:16:33.686Z,58.22
2023-02-25T15:19:44.802Z,58.39
2023-02-25T15:22:20.677Z,59.02
2023-02-25T15:24:49.502Z,59.15
2023-02-25T15:27:43.781Z,59.58
2023-02-25T15:30:15.670Z,60.34
2023-02-25T15:32:53.910Z,60.33
2023-02-25T15:35:24.644Z,59.87
2023-02-25T15:38:09.424Z,59.92
2023-02-25T15:40:47.303Z,60.21
2023-02-25T15:43:41.163Z,59.88
2023-02-25T15:46:43.212Z,60.02
2023-02-25T15:49:28.000Z,60.03
2023-02-25T15:51:58.936Z,60.00
2023-02-25T15:54:51.797Z,59.40
2023-02-25T15:57:41.947Z,59.24
2023-02-25T16:00:52.076Z,59.01
2023-02-25T16:03:42.257Z,59.14
2023-02-25T16:06:16.987Z,59.04
2023-02-25T16:08:56.746Z,58.72
2023-02-25T16:11:34.638Z,58.56
2023-02-25T16:14:07.311Z,58.33
2023-02-25T16:16:40.846Z,58.37
2023-02-25T16:19:17.404Z,58.28
2023-02-25T16:21:47.877Z,58.04
2023-02-25T16:24:17.556Z,58.25
2023-02-25T16:26:54.225Z,58.40
2023-02-25T16:29:33.873Z,58.75
2023-02-25T16:32:06.948Z,59.30
2023-02-25T16:34:43.620Z,59.83
2023-02-25T16:37:17.830Z,60.92
2023-02-25T16:39:46.592Z,61.48
2023-02-25T16:42:17.676Z,61.67
2023-02-25T16:44:52.893Z,61.56
2023-02-25T16:47:25.208Z,62.05
2023-02-25T16:49:56.666Z,61.83
2023-02-25T16:52:30.342Z,61.06
2023-02-25T16:55:01.105Z,60.77
2023-02-25T16:57:29.504Z,60.40
2023-02-25T17:00:14.737Z,60.24
2023-02-25T17:02:45.803Z,60.10
2023-02-25T17:05:27.325Z,59.83
2023-02-25T17:07:57.078Z,60.10
2023-02-25T17:10:27.961Z,59.33
2023-02-25T17:12:56.684Z,59.33
2023-02-25T17:15:28.068Z,58.98
2023-02-25T17:18:03.422Z,58.60
2023-02-25T17:20:33.225Z,58.23
2023-02-25T17:23:07.338Z,57.98
2023-02-25T17:25:40.017Z,57.63
2023-02-25T17:28:17.211Z,57.40
2023-02-25T17:30:47.367Z,57.03
2023-02-25T17:33:24.092Z,57.12
2023-02-25T17:35:58.637Z,56.87
2023-02-25T17:38:29.114Z,56.92
2023-02-25T17:40:59.213Z,57.13
2023-02-25T17:43:38.666Z,56.83
2023-02-25T17:46:18.644Z,56.53
2023-02-25T17:48:53.798Z,55.81
2023-02-25T17:51:33.359Z,55.61
2023-02-25T17:54:07.629Z,55.85
2023-02-25T17:56:37.059Z,56.25
2023-02-25T17:59:07.630Z,56.08
2023-02-25T18:01:53.782Z,56.11
2023-02-25T18:04:25.028Z,55.17
2023-02-25T18:06:56.260Z,54.89
2023-02-25T18:09:45.890Z,55.55
2023-02-25T18:12:24.287Z,55.35
2023-02-25T18:14:56.353Z,55.47
2023-02-25T18:17:28.349Z,55.38
2023-02-25T18:19:58.872Z,55.64
2023-02-25T18:22:33.825Z,55.38
2023-02-25T18:25:04.278Z,55.36
2023-02-25T18:27:33.727Z,55.41
2023-02-25T18:30:18.166Z,55.16
2023-02-25T18:32:46.967Z,55.38
2023-02-25T18:35:16.179Z,55.35
2023-02-25T18:37:47.511Z,55.36
2023-02-25T18:40:18.243Z,55.64
2023-02-25T18:42:46.624Z,58.02
2023-02-25T18:45:16.813Z,61.59
2023-02-25T18:47:45.472Z,62.05
2023-02-25T18:50:14.453Z,62.93
2023-02-25T18:52:43.428Z,63.59
2023-02-25T18:55:19.353Z,63.42
2023-02-25T18:57:47.917Z,62.41
2023-02-25T19:00:21.294Z,61.81
2023-02-25T19:02:52.065Z,61.14
2023-02-25T19:05:22.537Z,60.46
2023-02-25T19:07:51.654Z,60.29
2023-02-25T19:10:23.030Z,60.42
2023-02-25T19:12:53.531Z,60.04
2023-02-25T19:15:22.673Z,60.02
2023-02-25T19:17:50.725Z,59.68
2023-02-25T19:20:20.852Z,59.69
2023-02-25T19:22:51.074Z,59.54
2023-02-25T19:25:23.783Z,59.45
2023-02-25T19:27:52.750Z,59.09
2023-02-25T19:30:23.416Z,59.02
2023-02-25T19:32:51.501Z,58.84
2023-02-25T19:35:19.745Z,58.48
2023-02-25T19:37:48.417Z,58.53
2023-02-25T19:40:17.401Z,58.16
2023-02-25T19:42:47.130Z,58.05
2023-02-25T19:45:18.784Z,57.71
2023-02-25T19:47:47.418Z,57.67
2023-02-25T19:50:18.050Z,57.62
2023-02-25T19:52:46.302Z,57.41
2023-02-25T19:55:15.019Z,57.36
2023-02-25T19:57:44.083Z,57.43
2023-02-25T20:00:16.283Z,57.19
2023-02-25T20:02:45.353Z,57.24
2023-02-25T20:05:14.769Z,57.14
2023-02-25T20:07:44.291Z,57.22
2023-02-25T20:10:14.728Z,57.46
2023-02-25T20:12:45.105Z,57.68
2023-02-25T20:15:16.695Z,57.95
2023-02-25T20:17:46.221Z,57.63
2023-02-25T20:20:16.061Z,57.47
2023-02-25T20:22:44.522Z,56.75
2023-02-25T20:25:14.021Z,56.47
2023-02-25T20:27:43.587Z,56.04
2023-02-25T20:30:15.817Z,56.17
2023-02-25T20:32:46.185Z,56.46
2023-02-25T20:35:17.620Z,56.26
2023-02-25T20:37:55.012Z,55.90
2023-02-25T20:40:23.382Z,55.99
2023-02-25T20:42:52.035Z,56.02
2023-02-25T20:45:22.262Z,56.16
2023-02-25T20:47:50.726Z,55.82
2023-02-25T20:50:23.184Z,55.98
2023-02-25T20:52:51.534Z,55.52
2023-02-25T20:55:19.807Z,55.66
2023-02-25T20:57:47.779Z,55.67
2023-02-25T21:00:16.716Z,55.91
2023-02-25T21:02:46.829Z,55.95
2023-02-25T21:05:15.347Z,56.43
2023-02-25T21:07:43.495Z,56.47
2023-02-25T21:10:13.002Z,56.77
2023-02-25T21:12:41.298Z,56.75
2023-02-25T21:15:10.443Z,56.87
2023-02-25T21:17:38.758Z,56.83
2023-02-25T21:20:09.443Z,56.88
2023-02-25T21:22:37.845Z,56.93
2023-02-25T21:25:07.098Z,57.08
2023-02-25T21:27:35.227Z,57.63
2023-02-25T21:30:03.344Z,57.57
2023-02-25T21:32:31.907Z,57.79
2023-02-25T21:34:59.913Z,58.06
2023-02-25T21:37:29.220Z,58.03
2023-02-25T21:39:57.598Z,58.19
2023-02-25T21:42:25.553Z,57.86
2023-02-25T21:44:54.054Z,57.71
2023-02-25T21:47:22.733Z,57.62
2023-02-25T21:49:51.369Z,57.59
2023-02-25T21:52:19.440Z,57.52
2023-02-25T21:54:50.016Z,57.61
2023-02-25T21:57:18.045Z,57.81
2023-02-25T21:59:45.972Z,57.70
2023-02-25T22:02:14.351Z,57.47
2023-02-25T22:04:42.607Z,57.32
2023-02-25T22:07:11.015Z,57.26
2023-02-25T22:09:38.994Z,57.20
2023-02-25T22:12:08.518Z,57.08
2023-02-25T22:14:36.482Z,57.03
2023-02-25T22:17:04.792Z,57.15
2023-02-25T22:19:33.079Z,57.01
2023-02-25T22:22:01.037Z,57.04
2023-02-25T22:24:29.124Z,56.93
2023-02-25T22:26:57.455Z,57.00
2023-02-25T22:29:26.923Z,56.93
2023-02-25T22:31:54.897Z,56.94
2023-02-25T22:34:23.306Z,56.58
2023-02-25T22:36:51.220Z,56.66
2023-02-25T22:39:19.193Z,56.92
2023-02-25T22:41:47.498Z,56.68
2023-02-25T22:44:15.461Z,56.40
2023-02-25T22:46:44.852Z,56.40
2023-02-25T22:49:13.252Z,56.39
2023-02-25T22:51:43.298Z,56.45
2023-02-25T22:54:12.391Z,56.41
2023-02-25T22:56:40.972Z,56.30
2023-02-25T22:59:09.042Z,56.23
2023-02-25T23:01:38.070Z,56.35
2023-02-25T23:04:08.933Z,56.31
2023-02-25T23:06:44.114Z,56.30
2023-02-25T23:09:13.830Z,56.38
2023-02-25T23:11:43.724Z,56.28
2023-02-25T23:14:12.529Z,56.42
2023-02-25T23:16:43.390Z,56.45
2023-02-25T23:19:15.929Z,56.31
2023-02-25T23:21:44.881Z,56.13
2023-02-25T23:24:16.533Z,56.06
2023-02-25T23:26:46.347Z,56.18
2023-02-25T23:29:15.006Z,56.33
2023-02-25T23:31:45.795Z,56.23
2023-02-25T23:34:19.990Z,56.35
2023-02-25T23:36:48.000Z,56.19
2023-02-25T23:39:17.192Z,56.19
2023-02-25T23:41:45.580Z,55.97
2023-02-25T23:44:14.561Z,56.06
2023-02-25T23:46:45.215Z,56.07
2023-02-25T23:49:16.627Z,56.23
2023-02-25T23:51:46.851Z,56.08
2023-02-25T23:54:16.985Z,56.07
2023-02-25T23:56:45.867Z,56.06
2023-02-25T23:59:14.264Z,56.10
